New Orleans, LA (70189)

9:42 AM CDT on October 01, 2014 (GMT -0500)
LAKEVIEW DR. | Change Station
CLOSE
Current Station
Personal Weather Station
Location: Slidell, LA
Elevation: 24 ft
Nearby Weather Stations

Elev 24 ft 30.22 °N, 89.82 °W | Updated 13 minutes ago

Clear
Clear
78.9 °F
Feels Like 82 °F
N
11.0
Wind Variable Wind from ESE
Gusts 11.0 mph

Today
High -- | Low -- °F
--% Chance of Precip.
Yesterday
High -- | Low -- °F
Precip. -- in
6:52 AM 6:44 PM
Waxing Crescent, 48% visible
Pressure 29.90 in
Visibility 10.0 miles
Clouds Clear
Heat Index 82 °F
Dew Point 74 °F
Humidity 86%
Rainfall 0.00 in
Snow Depth Not available.
UV 5 out of 12
Pollen 6.70 out of 12
Ozone Good
PM2.5 Good
Flu Activity Not available.
METAR KNEW 301453Z 07007KT 10SM CLR 27/23 A2992 RMK AO2 SLP123 T02670228 52008

More Conditions Fewer Conditions

Pressure 29.90 in
Visibility 10.0 miles
Clouds Clear
Heat Index 82 °F
Dew Point 74 °F
Humidity 86%
Rainfall 0.00 in
Snow Depth Not available.
UV 5 out of 12
Pollen 6.70 out of 12
Ozone Good
PM2.5 Good
Flu Activity Not available.
METAR KNEW 301453Z 07007KT 10SM CLR 27/23 A2992 RMK AO2 SLP123 T02670228 52008

More Conditions Fewer Conditions

10-Day Weather Forecast

Almanac

Astronomy

Oct. 01, 2014 Rise Set
Actual Time 6:52 AM CDT 6:44 PM CDT
Civil Twilight 6:28 AM CDT 7:08 PM CDT
Nautical Twilight 6:01 AM CDT 7:36 PM CDT
Astronomical Twilight 5:33 AM CDT 8:04 PM CDT
Moon 1:35 PM CDT No Moon Set
Length of Visible Light 12h 39m
Length of Day
11h 51m
Tomorrow will be 1m 48s shorter.
Waxing Crescent, 48% of the Moon is Illuminated
Today
Waxing Crescent
Oct 1
First Quarter
Oct 8
Full
Oct 15
Last Quarter
Oct 23
New

Today's Extremes

State Highs State Lows

Community

WunderPhotos

Upload Photos

1,757,960 photos uploaded!

Nearby

Air Quality

  Air Quality AQ Index Pollutant
Yesterday Good
OZONE
Yesterday Good
PM2.5
Current Good
PM2.5
Current Good
OZONE
Wednesday Good
OZONE
Wednesday Good
PM2.5
Thursday Good
PM2.5
Thursday Good
OZONE

Snow Depth

Station Depth Elevation
No new snow has been reported.

Earthquake Activity

City Distance Mag. Time & Date
No recent earthquake activity has been reported nearby.
Minimum magnitude displayed is 2.5.

Coastal Water Temperatures

Place Temperature
New Canal, LA 77.0 °F
Shell Beach, LA 75.0 °F
Bayou Gauche, LA 81.0 °F

Nearby Weather Stations